createdAt,value
2023-04-29T00:03:25.667Z,11.33
2023-04-29T00:08:29.062Z,11.25
2023-04-29T00:13:32.303Z,11.18
2023-04-29T00:18:35.290Z,11.11
2023-04-29T00:23:38.350Z,11.07
2023-04-29T00:28:41.633Z,11.05
2023-04-29T00:33:46.071Z,10.97
2023-04-29T00:38:49.077Z,10.94
2023-04-29T00:43:52.760Z,10.89
2023-04-29T00:48:56.062Z,10.84
2023-04-29T00:53:59.132Z,10.80
2023-04-29T00:59:03.812Z,10.70
2023-04-29T01:04:08.446Z,10.61
2023-04-29T01:09:36.295Z,10.56
2023-04-29T01:14:39.856Z,10.48
2023-04-29T01:25:27.787Z,10.34
2023-04-29T01:31:31.435Z,10.24
2023-04-29T01:36:44.395Z,10.12
2023-04-29T01:41:59.072Z,9.99
2023-04-29T01:47:06.464Z,9.92
2023-04-29T01:52:16.693Z,9.89
2023-04-29T01:57:27.954Z,9.85
2023-04-29T02:02:37.725Z,9.82
2023-04-29T02:07:48.744Z,9.82
2023-04-29T02:12:52.159Z,9.82
2023-04-29T02:17:56.160Z,9.86
2023-04-29T02:22:59.773Z,9.88
2023-04-29T02:28:03.379Z,9.92
2023-04-29T02:33:08.451Z,9.93
2023-04-29T02:38:27.168Z,9.94
2023-04-29T02:43:33.032Z,9.97
2023-04-29T02:48:37.957Z,10.02
2023-04-29T02:53:43.611Z,10.04
2023-04-29T02:58:46.965Z,10.13
2023-04-29T03:03:50.521Z,10.25
2023-04-29T03:09:03.496Z,10.30
2023-04-29T03:14:06.793Z,10.37
2023-04-29T03:19:10.726Z,10.34
2023-04-29T03:24:14.160Z,10.31
2023-04-29T03:29:17.608Z,10.28
2023-04-29T03:34:29.029Z,10.28
2023-04-29T03:39:49.165Z,10.29
2023-04-29T03:44:52.595Z,10.34
2023-04-29T03:49:55.964Z,10.41
2023-04-29T03:54:59.377Z,10.37
2023-04-29T04:00:04.959Z,10.31
2023-04-29T04:05:16.784Z,10.29
2023-04-29T04:10:25.054Z,10.28
2023-04-29T04:15:29.445Z,10.33
2023-04-29T04:20:33.323Z,10.34
2023-04-29T04:25:37.235Z,10.33
2023-04-29T04:30:55.353Z,10.32
2023-04-29T04:35:58.750Z,10.32
2023-04-29T04:41:02.931Z,10.32
2023-04-29T04:46:13.735Z,10.38
2023-04-29T04:51:24.997Z,10.41
2023-04-29T04:56:29.080Z,10.39
2023-04-29T05:01:33.259Z,10.41
2023-04-29T05:06:37.849Z,10.45
2023-04-29T05:11:42.288Z,10.51
2023-04-29T05:16:51.681Z,10.55
2023-04-29T05:21:55.893Z,10.57
2023-04-29T05:27:00.533Z,10.62
2023-04-29T05:32:04.639Z,10.70
2023-04-29T05:37:08.192Z,10.76
2023-04-29T05:42:20.327Z,10.82
2023-04-29T05:47:27.029Z,10.90
2023-04-29T05:52:30.619Z,10.98
2023-04-29T05:57:35.366Z,11.04
2023-04-29T06:02:51.049Z,11.16
2023-04-29T06:08:03.166Z,11.30
2023-04-29T06:13:20.814Z,11.39
2023-04-29T06:18:25.317Z,11.47
2023-04-29T06:23:28.777Z,11.57
2023-04-29T06:28:32.292Z,11.69
2023-04-29T06:33:35.984Z,11.83
2023-04-29T06:38:39.278Z,11.94
2023-04-29T06:44:06.630Z,12.05
2023-04-29T06:49:31.178Z,12.23
2023-04-29T06:54:35.878Z,12.38
2023-04-29T06:59:39.122Z,12.58
2023-04-29T07:10:34.124Z,13.27
2023-04-29T07:15:37.666Z,13.65
2023-04-29T07:20:40.933Z,14.03
2023-04-29T07:25:44.439Z,14.21
2023-04-29T07:30:47.783Z,14.41
2023-04-29T07:35:50.873Z,14.33
2023-04-29T07:40:53.975Z,14.28
2023-04-29T07:45:57.146Z,14.29
2023-04-29T07:51:00.389Z,14.33
2023-04-29T07:56:07.757Z,14.54
2023-04-29T08:01:12.478Z,14.68
2023-04-29T08:06:18.563Z,14.75
2023-04-29T08:11:24.666Z,14.84
2023-04-29T08:16:28.167Z,15.03
2023-04-29T08:21:32.767Z,15.23
2023-04-29T08:26:35.841Z,15.35
2023-04-29T08:31:38.947Z,15.47
2023-04-29T08:36:45.122Z,15.58
2023-04-29T08:41:53.650Z,15.77
2023-04-29T08:46:59.702Z,15.91
2023-04-29T08:52:04.286Z,16.00
2023-04-29T08:57:07.793Z,16.14
2023-04-29T09:02:17.179Z,16.27
2023-04-29T09:07:20.707Z,16.37
2023-04-29T09:12:23.798Z,16.42
2023-04-29T09:18:00.077Z,16.55
2023-04-29T09:23:04.804Z,16.65
2023-04-29T09:28:17.509Z,16.76
2023-04-29T09:33:20.710Z,16.87
2023-04-29T09:38:23.911Z,16.87
2023-04-29T09:43:27.129Z,16.86
2023-04-29T09:48:33.926Z,16.98
2023-04-29T09:53:40.251Z,17.09
2023-04-29T09:58:43.486Z,17.27
2023-04-29T10:03:49.278Z,17.44
2023-04-29T10:08:52.546Z,17.53
2023-04-29T10:13:56.136Z,17.56
2023-04-29T10:19:03.824Z,17.62
2023-04-29T10:24:08.070Z,17.71
2023-04-29T10:29:14.165Z,17.78
2023-04-29T10:34:18.264Z,17.65
2023-04-29T10:39:36.328Z,17.50
2023-04-29T10:45:21.543Z,17.38
2023-04-29T10:50:24.573Z,17.30
2023-04-29T10:55:27.649Z,17.30
2023-04-29T11:00:33.903Z,17.25
2023-04-29T11:05:37.756Z,17.33
2023-04-29T11:10:44.073Z,17.38
2023-04-29T11:15:47.215Z,17.44
2023-04-29T11:21:05.040Z,17.52
2023-04-29T11:26:08.272Z,17.50
2023-04-29T11:31:11.404Z,17.79
2023-04-29T11:36:15.420Z,17.99
2023-04-29T11:41:18.747Z,17.97
2023-04-29T11:46:21.766Z,17.91
2023-04-29T11:51:24.837Z,18.10
2023-04-29T11:56:28.001Z,18.28
2023-04-29T12:01:34.163Z,18.48
2023-04-29T12:06:37.335Z,18.56
2023-04-29T12:11:41.442Z,18.66
2023-04-29T12:16:46.387Z,18.62
2023-04-29T12:21:50.391Z,18.64
2023-04-29T12:26:55.857Z,18.64
2023-04-29T12:31:59.055Z,18.64
2023-04-29T12:37:02.964Z,18.71
2023-04-29T12:42:05.983Z,18.76
2023-04-29T12:47:10.785Z,18.81
2023-04-29T12:52:14.340Z,18.81
2023-04-29T12:57:17.433Z,18.84
2023-04-29T13:02:20.737Z,18.81
2023-04-29T13:07:23.980Z,18.85
2023-04-29T13:12:27.298Z,18.88
2023-04-29T13:17:30.471Z,18.88
2023-04-29T13:22:34.041Z,18.73
2023-04-29T13:27:37.317Z,18.59
2023-04-29T13:32:46.305Z,18.40
2023-04-29T13:37:55.777Z,18.24
2023-04-29T13:43:06.098Z,18.11
2023-04-29T13:48:34.858Z,18.02
2023-04-29T13:59:30.556Z,17.81
2023-04-29T14:04:06.574Z,17.72
2023-04-29T14:09:09.954Z,17.62
2023-04-29T14:14:13.110Z,17.54
2023-04-29T14:19:16.272Z,17.46
2023-04-29T14:24:21.636Z,17.38
2023-04-29T14:29:24.925Z,17.31
2023-04-29T14:34:27.926Z,17.26
2023-04-29T14:39:31.161Z,17.26
2023-04-29T14:44:34.628Z,17.20
2023-04-29T14:49:37.805Z,17.13
2023-04-29T14:54:41.201Z,17.08
2023-04-29T14:59:44.641Z,17.02
2023-04-29T15:04:47.912Z,16.98
2023-04-29T15:09:51.310Z,16.97
2023-04-29T15:14:54.523Z,16.95
2023-04-29T15:19:57.804Z,16.94
2023-04-29T15:25:01.369Z,16.92
2023-04-29T15:30:06.044Z,17.02
2023-04-29T15:35:09.539Z,17.02
2023-04-29T15:40:13.090Z,16.96
2023-04-29T15:45:17.126Z,16.95
2023-04-29T15:50:21.088Z,17.21
2023-04-29T15:55:24.221Z,17.58
2023-04-29T16:00:27.285Z,17.62
2023-04-29T16:05:31.812Z,17.60
2023-04-29T16:10:35.010Z,17.55
2023-04-29T16:15:38.061Z,17.44
2023-04-29T16:20:41.937Z,17.35
2023-04-29T16:25:45.191Z,17.24
2023-04-29T16:30:48.204Z,17.14
2023-04-29T16:35:51.907Z,17.05
2023-04-29T16:40:55.159Z,16.98
2023-04-29T16:45:58.630Z,16.96
2023-04-29T16:51:02.736Z,16.95
2023-04-29T16:56:06.156Z,16.97
2023-04-29T17:01:09.319Z,16.89
2023-04-29T17:06:13.865Z,16.79
2023-04-29T17:11:18.434Z,16.70
2023-04-29T17:16:21.551Z,16.61
2023-04-29T17:21:26.032Z,16.52
2023-04-29T17:26:29.117Z,16.48
2023-04-29T17:31:45.243Z,16.59
2023-04-29T17:36:48.654Z,17.19
2023-04-29T17:41:52.023Z,17.52
2023-04-29T17:46:55.178Z,17.44
2023-04-29T17:52:04.415Z,16.99
2023-04-29T17:57:08.661Z,16.69
2023-04-29T18:02:11.818Z,16.39
2023-04-29T18:07:15.212Z,16.11
2023-04-29T18:12:18.341Z,15.86
2023-04-29T18:17:21.367Z,15.66
2023-04-29T18:22:24.558Z,15.53
2023-04-29T18:27:27.634Z,15.65
2023-04-29T18:32:31.536Z,15.60
2023-04-29T18:37:34.912Z,15.49
2023-04-29T18:42:37.998Z,15.38
2023-04-29T18:47:41.131Z,15.28
2023-04-29T18:52:44.177Z,15.22
2023-04-29T18:57:47.137Z,15.20
2023-04-29T19:02:50.333Z,15.28
2023-04-29T19:07:53.404Z,15.31
2023-04-29T19:12:56.645Z,15.19
2023-04-29T19:17:59.977Z,15.08
2023-04-29T19:23:03.348Z,14.96
2023-04-29T19:28:09.423Z,14.86
2023-04-29T19:33:13.979Z,14.77
2023-04-29T19:38:17.516Z,14.72
2023-04-29T19:43:20.759Z,14.70
2023-04-29T19:48:23.982Z,14.73
2023-04-29T19:53:27.886Z,14.71
2023-04-29T19:58:31.150Z,14.66
2023-04-29T20:03:36.253Z,14.64
2023-04-29T20:08:39.550Z,14.61
2023-04-29T20:13:42.680Z,14.58
2023-04-29T20:18:45.989Z,14.58
2023-04-29T20:23:49.404Z,14.63
2023-04-29T20:28:52.410Z,14.63
2023-04-29T20:33:55.471Z,14.60
2023-04-29T20:38:58.531Z,14.54
2023-04-29T20:44:11.927Z,14.45
2023-04-29T20:49:15.069Z,14.44
2023-04-29T20:54:18.000Z,14.47
2023-04-29T20:59:21.051Z,14.50
2023-04-29T21:04:24.501Z,14.52
2023-04-29T21:09:27.848Z,14.52
2023-04-29T21:14:31.349Z,14.46
2023-04-29T21:19:37.826Z,14.40
2023-04-29T21:24:41.814Z,14.39
2023-04-29T21:29:44.844Z,14.37
2023-04-29T21:34:48.454Z,14.37
2023-04-29T21:39:51.606Z,14.38
2023-04-29T21:44:57.470Z,14.35
2023-04-29T21:50:01.286Z,14.32
2023-04-29T21:55:04.895Z,14.30
2023-04-29T22:00:19.495Z,14.26
2023-04-29T22:05:22.648Z,14.28
2023-04-29T22:10:26.051Z,14.35
2023-04-29T22:15:29.650Z,14.39
2023-04-29T22:20:33.130Z,14.35
2023-04-29T22:25:36.245Z,14.34
2023-04-29T22:30:39.246Z,14.33
2023-04-29T22:35:42.304Z,14.37
2023-04-29T22:40:51.060Z,14.47
2023-04-29T22:45:55.031Z,14.54
2023-04-29T22:51:03.243Z,14.57
2023-04-29T22:56:06.546Z,14.52
2023-04-29T23:01:11.771Z,14.49
2023-04-29T23:06:15.279Z,14.45
2023-04-29T23:11:18.391Z,14.45
2023-04-29T23:16:21.486Z,14.49
2023-04-29T23:21:27.362Z,14.49
2023-04-29T23:26:30.756Z,14.49
2023-04-29T23:31:33.889Z,14.44
2023-04-29T23:36:36.892Z,14.40
2023-04-29T23:41:40.283Z,14.41
2023-04-29T23:46:43.374Z,14.39
2023-04-29T23:51:46.654Z,14.42
2023-04-29T23:56:49.581Z,14.40
